This is the latest recevied weather packets stored in our database for station/object HB9TJM-8. If no packets are shown the sender has not sent any weather packets the latest 10 day(s).
| Time | Temp. | Humidity | Pressure | Rain* | Wind** | Luminosity | Snow |
|---|---|---|---|---|---|---|---|
| 1777712832 | 16.67° C | 60% | 1023.5 hPa | 0 mm | - | 646 W/m² | - |
| 1777712525 | 17.22° C | 59% | 1023.5 hPa | 0 mm | - | 653 W/m² | - |
| 1777712217 | 17.22° C | 60% | 1023.6 hPa | 0 mm | - | 674 W/m² | - |
| 1777711910 | 16.67° C | 60% | 1023.7 hPa | 0 mm | - | 657 W/m² | - |
| 1777711603 | 16.67° C | 58% | 1023.5 hPa | 0 mm | - | 643 W/m² | - |
| 1777711295 | 16.11° C | 61% | 1024.1 hPa | 0 mm | - | 631 W/m² | - |
| 1777711295 | 16.11° C | 61% | 1024.1 hPa | 0 mm | - | 631 W/m² | - |
| 1777710987 | 16.11° C | 61% | 1023.2 hPa | 0 mm | - | 625 W/m² | - |
| 1777710680 | 16.11° C | 61% | 1023.4 hPa | 0 mm | - | 607 W/m² | - |
| 1777710680 | 16.11° C | 61% | 1023.4 hPa | 0 mm | - | 607 W/m² | - |
| 1777710372 | 16.11° C | 61% | 1022.8 hPa | 0 mm | - | 595 W/m² | - |
| 1777710372 | 16.11° C | 61% | 1022.8 hPa | 0 mm | - | 595 W/m² | - |
| 1777710064 | 15.56° C | 63% | 1023.6 hPa | 0 mm | - | 582 W/m² | - |
| 1777710064 | 15.56° C | 63% | 1023.6 hPa | 0 mm | - | 582 W/m² | - |
| 1777709757 | 15.56° C | 63% | 1023.5 hPa | 0 mm | - | 551 W/m² | - |
| 1777709757 | 15.56° C | 63% | 1023.5 hPa | 0 mm | - | 551 W/m² | - |
| 1777709450 | 15.56° C | 64% | 1023.3 hPa | 0 mm | - | 549 W/m² | - |
| 1777709450 | 15.56° C | 64% | 1023.3 hPa | 0 mm | - | 549 W/m² | - |
| 1777709143 | 15° C | 65% | 1023.5 hPa | 0 mm | - | 541 W/m² | - |
| 1777709143 | 15° C | 65% | 1023.5 hPa | 0 mm | - | 541 W/m² | - |
| 1777708835 | 14.44° C | 64% | 1023.3 hPa | 0 mm | - | 526 W/m² | - |
| 1777708835 | 14.44° C | 64% | 1023.3 hPa | 0 mm | - | 526 W/m² | - |
| 1777708221 | 15.56° C | 63% | 1023.4 hPa | 0 mm | - | 494 W/m² | - |
| 1777708221 | 15.56° C | 63% | 1023.4 hPa | 0 mm | - | 494 W/m² | - |
| 1777707914 | 15° C | 65% | 1023.5 hPa | 0 mm | - | 479 W/m² | - |
* Rain latest hour (hover to see other rain measurements)
** Current wind speed in m/s (hover to see current wind gust speed)